sensor_id;sensor_type;location;lat;lon;timestamp;temperature;humidity
25328;DHT22;13279;51.300;12.394;2023-04-01T00:00:34;8.90;99.90
25328;DHT22;13279;51.300;12.394;2023-04-01T00:03:02;8.90;99.90
25328;DHT22;13279;51.300;12.394;2023-04-01T00:05:29;8.90;99.90
25328;DHT22;13279;51.300;12.394;2023-04-01T00:07:57;8.90;99.90
25328;DHT22;13279;51.300;12.394;2023-04-01T00:10:25;8.90;99.90
25328;DHT22;13279;51.300;12.394;2023-04-01T00:12:54;8.90;99.90
25328;DHT22;13279;51.300;12.394;2023-04-01T00:15:22;8.90;99.90
25328;DHT22;13279;51.300;12.394;2023-04-01T00:17:50;8.90;99.90
25328;DHT22;13279;51.300;12.394;2023-04-01T00:42:55;9.10;99.90
25328;DHT22;13279;51.300;12.394;2023-04-01T00:45:33;9.00;99.90
25328;DHT22;13279;51.300;12.394;2023-04-01T00:48:04;9.00;99.90
25328;DHT22;13279;51.300;12.394;2023-04-01T00:50:52;9.00;99.90
25328;DHT22;13279;51.300;12.394;2023-04-01T00:53:24;9.10;99.90
25328;DHT22;13279;51.300;12.394;2023-04-01T00:55:56;8.90;99.90
25328;DHT22;13279;51.300;12.394;2023-04-01T00:58:27;8.80;99.90
25328;DHT22;13279;51.300;12.394;2023-04-01T01:00:59;8.90;99.90
25328;DHT22;13279;51.300;12.394;2023-04-01T01:03:27;8.80;99.90
25328;DHT22;13279;51.300;12.394;2023-04-01T01:06:09;8.90;99.90
25328;DHT22;13279;51.300;12.394;2023-04-01T01:08:49;8.90;99.90
25328;DHT22;13279;51.300;12.394;2023-04-01T01:11:24;8.90;99.90
25328;DHT22;13279;51.300;12.394;2023-04-01T01:13:58;8.90;99.90
25328;DHT22;13279;51.300;12.394;2023-04-01T01:16:37;8.80;99.90
25328;DHT22;13279;51.300;12.394;2023-04-01T01:19:21;8.80;99.90
25328;DHT22;13279;51.300;12.394;2023-04-01T01:22:13;8.80;99.90
25328;DHT22;13279;51.300;12.394;2023-04-01T01:24:54;8.80;99.90
25328;DHT22;13279;51.300;12.394;2023-04-01T01:27:23;8.90;99.90
25328;DHT22;13279;51.300;12.394;2023-04-01T01:30:12;8.90;99.90
25328;DHT22;13279;51.300;12.394;2023-04-01T01:32:55;8.90;99.90
25328;DHT22;13279;51.300;12.394;2023-04-01T01:35:32;8.90;99.90
25328;DHT22;13279;51.300;12.394;2023-04-01T01:38:09;8.90;99.90
25328;DHT22;13279;51.300;12.394;2023-04-01T01:40:42;8.90;99.90
25328;DHT22;13279;51.300;12.394;2023-04-01T01:43:14;8.90;99.90
25328;DHT22;13279;51.300;12.394;2023-04-01T01:45:46;8.90;99.90
25328;DHT22;13279;51.300;12.394;2023-04-01T01:48:15;8.90;99.90
25328;DHT22;13279;51.300;12.394;2023-04-01T01:50:45;8.90;99.90
25328;DHT22;13279;51.300;12.394;2023-04-01T01:53:15;8.90;99.90
25328;DHT22;13279;51.300;12.394;2023-04-01T01:55:44;8.90;99.90
25328;DHT22;13279;51.300;12.394;2023-04-01T01:58:16;8.90;99.90
25328;DHT22;13279;51.300;12.394;2023-04-01T02:00:50;8.90;99.90
25328;DHT22;13279;51.300;12.394;2023-04-01T02:03:20;8.90;99.90
25328;DHT22;13279;51.300;12.394;2023-04-01T02:05:51;8.90;99.90
25328;DHT22;13279;51.300;12.394;2023-04-01T02:08:23;9.00;99.90
25328;DHT22;13279;51.300;12.394;2023-04-01T02:11:00;8.90;99.90
25328;DHT22;13279;51.300;12.394;2023-04-01T02:13:37;9.00;99.90
25328;DHT22;13279;51.300;12.394;2023-04-01T02:16:10;8.90;99.90
25328;DHT22;13279;51.300;12.394;2023-04-01T02:18:39;8.90;99.90
25328;DHT22;13279;51.300;12.394;2023-04-01T02:21:10;8.90;99.90
25328;DHT22;13279;51.300;12.394;2023-04-01T02:23:38;9.00;99.90
25328;DHT22;13279;51.300;12.394;2023-04-01T02:26:08;9.00;99.90
25328;DHT22;13279;51.300;12.394;2023-04-01T02:28:38;9.00;99.90
25328;DHT22;13279;51.300;12.394;2023-04-01T02:31:08;9.00;99.90
25328;DHT22;13279;51.300;12.394;2023-04-01T02:33:39;9.00;99.90
25328;DHT22;13279;51.300;12.394;2023-04-01T02:36:12;9.00;99.90
25328;DHT22;13279;51.300;12.394;2023-04-01T02:38:42;9.00;99.90
25328;DHT22;13279;51.300;12.394;2023-04-01T02:41:09;9.00;99.90
25328;DHT22;13279;51.300;12.394;2023-04-01T02:43:37;8.90;99.90
25328;DHT22;13279;51.300;12.394;2023-04-01T02:46:05;8.90;99.90
25328;DHT22;13279;51.300;12.394;2023-04-01T02:48:32;9.00;99.90
25328;DHT22;13279;51.300;12.394;2023-04-01T02:51:01;8.90;99.90
25328;DHT22;13279;51.300;12.394;2023-04-01T02:53:30;8.90;99.90
25328;DHT22;13279;51.300;12.394;2023-04-01T02:55:57;8.90;99.90
25328;DHT22;13279;51.300;12.394;2023-04-01T02:58:25;8.90;99.90
25328;DHT22;13279;51.300;12.394;2023-04-01T03:00:52;9.00;99.90
25328;DHT22;13279;51.300;12.394;2023-04-01T03:03:21;8.90;99.90
25328;DHT22;13279;51.300;12.394;2023-04-01T03:05:48;9.00;99.90
25328;DHT22;13279;51.300;12.394;2023-04-01T03:08:16;8.90;99.90
25328;DHT22;13279;51.300;12.394;2023-04-01T03:10:45;8.90;99.90
25328;DHT22;13279;51.300;12.394;2023-04-01T03:13:12;8.90;99.90
25328;DHT22;13279;51.300;12.394;2023-04-01T03:15:40;9.00;99.90
25328;DHT22;13279;51.300;12.394;2023-04-01T03:18:08;9.00;99.90
25328;DHT22;13279;51.300;12.394;2023-04-01T03:20:36;9.00;99.90
25328;DHT22;13279;51.300;12.394;2023-04-01T03:23:03;9.00;99.90
25328;DHT22;13279;51.300;12.394;2023-04-01T03:25:31;9.00;99.90
25328;DHT22;13279;51.300;12.394;2023-04-01T03:28:01;9.00;99.90
25328;DHT22;13279;51.300;12.394;2023-04-01T03:30:28;8.90;99.90
25328;DHT22;13279;51.300;12.394;2023-04-01T03:32:57;8.90;99.90
25328;DHT22;13279;51.300;12.394;2023-04-01T03:35:25;8.90;99.90
25328;DHT22;13279;51.300;12.394;2023-04-01T03:37:54;8.90;99.90
25328;DHT22;13279;51.300;12.394;2023-04-01T03:40:21;8.90;99.90
25328;DHT22;13279;51.300;12.394;2023-04-01T03:42:49;8.90;99.90
25328;DHT22;13279;51.300;12.394;2023-04-01T03:45:18;8.90;99.90
25328;DHT22;13279;51.300;12.394;2023-04-01T03:47:49;8.90;99.90
25328;DHT22;13279;51.300;12.394;2023-04-01T03:50:17;8.90;99.90
25328;DHT22;13279;51.300;12.394;2023-04-01T03:52:45;8.90;99.90
25328;DHT22;13279;51.300;12.394;2023-04-01T03:55:13;8.90;99.90
25328;DHT22;13279;51.300;12.394;2023-04-01T03:57:41;8.80;99.90
25328;DHT22;13279;51.300;12.394;2023-04-01T04:00:18;8.80;99.90
25328;DHT22;13279;51.300;12.394;2023-04-01T04:02:50;8.80;99.90
25328;DHT22;13279;51.300;12.394;2023-04-01T04:05:25;8.80;99.90
25328;DHT22;13279;51.300;12.394;2023-04-01T04:07:53;8.80;99.90
25328;DHT22;13279;51.300;12.394;2023-04-01T04:10:21;8.80;99.90
25328;DHT22;13279;51.300;12.394;2023-04-01T04:12:51;8.80;99.90
25328;DHT22;13279;51.300;12.394;2023-04-01T04:15:22;8.80;99.90
25328;DHT22;13279;51.300;12.394;2023-04-01T04:17:49;8.80;99.90
25328;DHT22;13279;51.300;12.394;2023-04-01T04:20:17;8.80;99.90
25328;DHT22;13279;51.300;12.394;2023-04-01T04:22:45;8.80;99.90
25328;DHT22;13279;51.300;12.394;2023-04-01T04:25:13;8.80;99.90
25328;DHT22;13279;51.300;12.394;2023-04-01T04:27:41;8.80;99.90
25328;DHT22;13279;51.300;12.394;2023-04-01T04:30:12;8.70;99.90
25328;DHT22;13279;51.300;12.394;2023-04-01T04:32:41;8.70;99.90
25328;DHT22;13279;51.300;12.394;2023-04-01T04:35:11;8.70;99.90
25328;DHT22;13279;51.300;12.394;2023-04-01T04:37:39;8.70;99.90
25328;DHT22;13279;51.300;12.394;2023-04-01T04:40:08;8.70;99.90
25328;DHT22;13279;51.300;12.394;2023-04-01T04:42:36;8.70;99.90
25328;DHT22;13279;51.300;12.394;2023-04-01T04:45:09;8.60;99.90
25328;DHT22;13279;51.300;12.394;2023-04-01T04:47:43;8.60;99.90
25328;DHT22;13279;51.300;12.394;2023-04-01T04:50:11;8.60;99.90
25328;DHT22;13279;51.300;12.394;2023-04-01T04:52:40;8.60;99.90
25328;DHT22;13279;51.300;12.394;2023-04-01T04:55:08;8.60;99.90
25328;DHT22;13279;51.300;12.394;2023-04-01T04:57:36;8.60;99.90
25328;DHT22;13279;51.300;12.394;2023-04-01T05:00:05;8.60;99.90
25328;DHT22;13279;51.300;12.394;2023-04-01T05:02:56;8.60;99.90
25328;DHT22;13279;51.300;12.394;2023-04-01T05:05:24;8.60;99.90
25328;DHT22;13279;51.300;12.394;2023-04-01T05:07:52;8.60;99.90
25328;DHT22;13279;51.300;12.394;2023-04-01T05:10:19;8.60;99.90
25328;DHT22;13279;51.300;12.394;2023-04-01T05:12:47;8.60;99.90
25328;DHT22;13279;51.300;12.394;2023-04-01T05:15:18;8.60;99.90
25328;DHT22;13279;51.300;12.394;2023-04-01T05:17:46;8.60;99.90
25328;DHT22;13279;51.300;12.394;2023-04-01T05:20:16;8.60;99.90
25328;DHT22;13279;51.300;12.394;2023-04-01T05:22:44;8.60;99.90
25328;DHT22;13279;51.300;12.394;2023-04-01T05:25:11;8.60;99.90
25328;DHT22;13279;51.300;12.394;2023-04-01T05:27:39;8.60;99.90
25328;DHT22;13279;51.300;12.394;2023-04-01T05:30:07;8.70;99.90
25328;DHT22;13279;51.300;12.394;2023-04-01T05:32:41;8.70;99.90
25328;DHT22;13279;51.300;12.394;2023-04-01T05:35:09;8.70;99.90
25328;DHT22;13279;51.300;12.394;2023-04-01T05:37:38;8.70;99.90
25328;DHT22;13279;51.300;12.394;2023-04-01T05:40:07;8.80;99.90
25328;DHT22;13279;51.300;12.394;2023-04-01T05:42:35;8.80;99.90
25328;DHT22;13279;51.300;12.394;2023-04-01T05:45:03;8.80;99.90
25328;DHT22;13279;51.300;12.394;2023-04-01T05:48:03;8.80;99.90
25328;DHT22;13279;51.300;12.394;2023-04-01T05:50:36;8.80;99.90
25328;DHT22;13279;51.300;12.394;2023-04-01T05:53:06;8.80;99.90
25328;DHT22;13279;51.300;12.394;2023-04-01T05:55:35;8.80;99.90
25328;DHT22;13279;51.300;12.394;2023-04-01T05:58:03;8.90;99.90
25328;DHT22;13279;51.300;12.394;2023-04-01T06:00:32;8.90;99.90
25328;DHT22;13279;51.300;12.394;2023-04-01T06:03:00;8.90;99.90
25328;DHT22;13279;51.300;12.394;2023-04-01T06:05:29;9.00;99.90
25328;DHT22;13279;51.300;12.394;2023-04-01T06:07:58;9.00;99.90
25328;DHT22;13279;51.300;12.394;2023-04-01T06:10:37;9.00;99.90
25328;DHT22;13279;51.300;12.394;2023-04-01T06:13:13;9.10;99.90
25328;DHT22;13279;51.300;12.394;2023-04-01T06:15:51;9.10;99.90
25328;DHT22;13279;51.300;12.394;2023-04-01T06:18:48;9.10;99.90
25328;DHT22;13279;51.300;12.394;2023-04-01T06:24:21;9.20;99.90
25328;DHT22;13279;51.300;12.394;2023-04-01T06:26:56;9.30;99.90
25328;DHT22;13279;51.300;12.394;2023-04-01T06:29:50;9.30;99.90
25328;DHT22;13279;51.300;12.394;2023-04-01T06:32:46;9.30;99.90
25328;DHT22;13279;51.300;12.394;2023-04-01T06:35:39;9.40;99.90
25328;DHT22;13279;51.300;12.394;2023-04-01T06:38:49;9.40;99.90
25328;DHT22;13279;51.300;12.394;2023-04-01T06:41:44;9.40;99.90
25328;DHT22;13279;51.300;12.394;2023-04-01T06:44:23;9.50;99.90
25328;DHT22;13279;51.300;12.394;2023-04-01T06:47:42;9.50;99.90
25328;DHT22;13279;51.300;12.394;2023-04-01T06:50:51;9.50;99.90
25328;DHT22;13279;51.300;12.394;2023-04-01T06:53:45;9.50;99.90
25328;DHT22;13279;51.300;12.394;2023-04-01T06:56:42;9.50;99.90
25328;DHT22;13279;51.300;12.394;2023-04-01T06:59:25;9.50;99.90
25328;DHT22;13279;51.300;12.394;2023-04-01T07:01:57;9.50;99.90
25328;DHT22;13279;51.300;12.394;2023-04-01T07:04:28;9.60;99.90
25328;DHT22;13279;51.300;12.394;2023-04-01T07:06:59;9.60;99.90
25328;DHT22;13279;51.300;12.394;2023-04-01T07:09:32;9.70;99.90
25328;DHT22;13279;51.300;12.394;2023-04-01T07:12:42;9.70;99.90
25328;DHT22;13279;51.300;12.394;2023-04-01T07:15:51;9.70;99.90
25328;DHT22;13279;51.300;12.394;2023-04-01T07:18:30;9.80;99.90
25328;DHT22;13279;51.300;12.394;2023-04-01T07:21:00;9.70;99.90
25328;DHT22;13279;51.300;12.394;2023-04-01T07:23:31;9.80;99.90
25328;DHT22;13279;51.300;12.394;2023-04-01T07:26:17;9.80;99.90
25328;DHT22;13279;51.300;12.394;2023-04-01T07:29:10;9.80;99.90
25328;DHT22;13279;51.300;12.394;2023-04-01T07:32:09;9.90;99.90
25328;DHT22;13279;51.300;12.394;2023-04-01T07:34:49;9.80;99.90
25328;DHT22;13279;51.300;12.394;2023-04-01T07:37:22;9.70;99.90
25328;DHT22;13279;51.300;12.394;2023-04-01T07:40:03;9.80;99.90
25328;DHT22;13279;51.300;12.394;2023-04-01T07:42:48;9.80;99.90
25328;DHT22;13279;51.300;12.394;2023-04-01T07:45:24;9.80;99.90
25328;DHT22;13279;51.300;12.394;2023-04-01T07:48:09;9.80;99.90
25328;DHT22;13279;51.300;12.394;2023-04-01T07:50:50;9.80;99.90
25328;DHT22;13279;51.300;12.394;2023-04-01T07:53:32;9.90;99.90
25328;DHT22;13279;51.300;12.394;2023-04-01T07:56:07;10.00;99.90
25328;DHT22;13279;51.300;12.394;2023-04-01T07:58:47;10.00;99.90
25328;DHT22;13279;51.300;12.394;2023-04-01T08:01:42;10.10;99.90
25328;DHT22;13279;51.300;12.394;2023-04-01T08:04:27;10.10;99.90
25328;DHT22;13279;51.300;12.394;2023-04-01T08:07:05;10.10;99.90
25328;DHT22;13279;51.300;12.394;2023-04-01T08:09:43;10.20;99.90
25328;DHT22;13279;51.300;12.394;2023-04-01T08:12:43;10.20;99.90
25328;DHT22;13279;51.300;12.394;2023-04-01T08:15:38;10.20;99.90
25328;DHT22;13279;51.300;12.394;2023-04-01T08:18:22;10.20;99.90
25328;DHT22;13279;51.300;12.394;2023-04-01T08:20:58;10.20;99.90
25328;DHT22;13279;51.300;12.394;2023-04-01T08:23:27;10.20;99.90
25328;DHT22;13279;51.300;12.394;2023-04-01T08:26:00;10.30;99.90
25328;DHT22;13279;51.300;12.394;2023-04-01T08:28:37;10.20;99.90
25328;DHT22;13279;51.300;12.394;2023-04-01T08:31:10;10.30;99.90
25328;DHT22;13279;51.300;12.394;2023-04-01T08:33:47;10.40;99.90
25328;DHT22;13279;51.300;12.394;2023-04-01T08:36:23;10.40;99.90
25328;DHT22;13279;51.300;12.394;2023-04-01T08:39:10;10.50;99.90
25328;DHT22;13279;51.300;12.394;2023-04-01T08:41:54;10.50;99.90
25328;DHT22;13279;51.300;12.394;2023-04-01T08:45:29;10.50;99.90
25328;DHT22;13279;51.300;12.394;2023-04-01T08:48:23;10.40;99.90
25328;DHT22;13279;51.300;12.394;2023-04-01T08:51:19;10.40;99.90
25328;DHT22;13279;51.300;12.394;2023-04-01T08:54:05;10.50;99.90
25328;DHT22;13279;51.300;12.394;2023-04-01T08:56:41;10.50;99.90
25328;DHT22;13279;51.300;12.394;2023-04-01T08:59:31;10.50;99.90
25328;DHT22;13279;51.300;12.394;2023-04-01T09:02:38;10.60;99.90
25328;DHT22;13279;51.300;12.394;2023-04-01T09:05:56;10.70;99.90
25328;DHT22;13279;51.300;12.394;2023-04-01T09:08:41;10.90;99.90
25328;DHT22;13279;51.300;12.394;2023-04-01T09:11:17;11.10;99.90
25328;DHT22;13279;51.300;12.394;2023-04-01T09:14:35;11.10;99.90
25328;DHT22;13279;51.300;12.394;2023-04-01T09:18:04;11.30;99.90
25328;DHT22;13279;51.300;12.394;2023-04-01T09:20:55;11.40;99.90
25328;DHT22;13279;51.300;12.394;2023-04-01T09:23:42;11.50;99.90
25328;DHT22;13279;51.300;12.394;2023-04-01T09:26:30;11.60;99.90
25328;DHT22;13279;51.300;12.394;2023-04-01T09:29:09;11.40;99.90
25328;DHT22;13279;51.300;12.394;2023-04-01T09:31:53;11.40;99.90
25328;DHT22;13279;51.300;12.394;2023-04-01T09:34:52;11.40;99.90
25328;DHT22;13279;51.300;12.394;2023-04-01T09:37:34;11.40;99.90
25328;DHT22;13279;51.300;12.394;2023-04-01T09:40:18;11.40;99.90
25328;DHT22;13279;51.300;12.394;2023-04-01T09:45:58;11.20;99.90
25328;DHT22;13279;51.300;12.394;2023-04-01T09:48:46;11.10;99.90
25328;DHT22;13279;51.300;12.394;2023-04-01T09:51:26;11.10;99.90
25328;DHT22;13279;51.300;12.394;2023-04-01T10:00:37;11.40;99.90
25328;DHT22;13279;51.300;12.394;2023-04-01T10:06:57;11.50;99.90
25328;DHT22;13279;51.300;12.394;2023-04-01T10:09:55;11.40;99.90
25328;DHT22;13279;51.300;12.394;2023-04-01T10:12:52;11.30;99.90
25328;DHT22;13279;51.300;12.394;2023-04-01T10:25:29;11.50;99.90
25328;DHT22;13279;51.300;12.394;2023-04-01T10:28:37;11.80;99.90
25328;DHT22;13279;51.300;12.394;2023-04-01T10:31:35;11.90;99.90
25328;DHT22;13279;51.300;12.394;2023-04-01T10:34:28;12.10;99.90
25328;DHT22;13279;51.300;12.394;2023-04-01T10:37:05;12.20;99.90
25328;DHT22;13279;51.300;12.394;2023-04-01T10:40:19;12.40;99.90
25328;DHT22;13279;51.300;12.394;2023-04-01T10:46:44;12.50;99.90
25328;DHT22;13279;51.300;12.394;2023-04-01T10:49:41;12.40;99.90
25328;DHT22;13279;51.300;12.394;2023-04-01T10:52:37;12.50;99.90
25328;DHT22;13279;51.300;12.394;2023-04-01T10:59:30;12.90;99.90
25328;DHT22;13279;51.300;12.394;2023-04-01T11:02:54;13.10;1.00
25328;DHT22;13279;51.300;12.394;2023-04-01T11:09:05;13.40;1.00
25328;DHT22;13279;51.300;12.394;2023-04-01T11:12:06;13.70;1.00
25328;DHT22;13279;51.300;12.394;2023-04-01T11:15:15;13.70;99.90
25328;DHT22;13279;51.300;12.394;2023-04-01T11:24:19;13.70;1.00
25328;DHT22;13279;51.300;12.394;2023-04-01T11:27:24;13.80;99.90
25328;DHT22;13279;51.300;12.394;2023-04-01T11:30:12;13.60;99.90
25328;DHT22;13279;51.300;12.394;2023-04-01T11:32:49;13.60;1.00
25328;DHT22;13279;51.300;12.394;2023-04-01T11:35:33;13.50;1.00
25328;DHT22;13279;51.300;12.394;2023-04-01T11:38:15;13.50;1.00
25328;DHT22;13279;51.300;12.394;2023-04-01T11:40:53;13.40;1.00
25328;DHT22;13279;51.300;12.394;2023-04-01T11:43:41;13.30;1.00
25328;DHT22;13279;51.300;12.394;2023-04-01T11:46:51;13.20;1.00
25328;DHT22;13279;51.300;12.394;2023-04-01T11:49:43;13.10;1.00
25328;DHT22;13279;51.300;12.394;2023-04-01T11:52:50;12.90;1.00
25328;DHT22;13279;51.300;12.394;2023-04-01T11:55:25;12.80;1.00
25328;DHT22;13279;51.300;12.394;2023-04-01T11:58:10;12.70;1.00
25328;DHT22;13279;51.300;12.394;2023-04-01T12:03:55;12.40;1.00
25328;DHT22;13279;51.300;12.394;2023-04-01T12:06:35;12.30;9.00
25328;DHT22;13279;51.300;12.394;2023-04-01T12:09:11;12.20;90.60
25328;DHT22;13279;51.300;12.394;2023-04-01T12:11:48;12.20;99.90
25328;DHT22;13279;51.300;12.394;2023-04-01T12:14:21;12.10;21.60
25328;DHT22;13279;51.300;12.394;2023-04-01T12:17:02;12.00;61.10
25328;DHT22;13279;51.300;12.394;2023-04-01T12:19:39;11.90;68.60
25328;DHT22;13279;51.300;12.394;2023-04-01T12:22:23;11.90;99.90
25328;DHT22;13279;51.300;12.394;2023-04-01T12:24:59;11.90;71.20
25328;DHT22;13279;51.300;12.394;2023-04-01T12:27:38;11.80;99.40
25328;DHT22;13279;51.300;12.394;2023-04-01T12:30:26;11.80;96.10
25328;DHT22;13279;51.300;12.394;2023-04-01T12:33:10;11.80;99.90
25328;DHT22;13279;51.300;12.394;2023-04-01T12:35:48;11.80;95.40
25328;DHT22;13279;51.300;12.394;2023-04-01T12:38:27;11.90;93.90
25328;DHT22;13279;51.300;12.394;2023-04-01T12:41:08;12.00;27.60
25328;DHT22;13279;51.300;12.394;2023-04-01T12:43:58;12.00;1.00
25328;DHT22;13279;51.300;12.394;2023-04-01T12:46:51;12.10;1.00
25328;DHT22;13279;51.300;12.394;2023-04-01T12:49:40;12.20;1.00
25328;DHT22;13279;51.300;12.394;2023-04-01T12:52:13;12.20;1.00
25328;DHT22;13279;51.300;12.394;2023-04-01T12:55:04;12.20;1.00
25328;DHT22;13279;51.300;12.394;2023-04-01T13:00:56;12.10;1.00
25328;DHT22;13279;51.300;12.394;2023-04-01T13:03:48;12.10;1.00
25328;DHT22;13279;51.300;12.394;2023-04-01T13:06:32;12.10;1.00
25328;DHT22;13279;51.300;12.394;2023-04-01T13:09:15;12.20;1.00
25328;DHT22;13279;51.300;12.394;2023-04-01T13:11:56;12.20;1.00
25328;DHT22;13279;51.300;12.394;2023-04-01T13:14:44;12.30;1.00
25328;DHT22;13279;51.300;12.394;2023-04-01T13:17:19;12.30;1.00
25328;DHT22;13279;51.300;12.394;2023-04-01T13:19:56;12.30;1.00
25328;DHT22;13279;51.300;12.394;2023-04-01T13:22:29;12.30;1.00
25328;DHT22;13279;51.300;12.394;2023-04-01T13:25:02;12.20;1.00
25328;DHT22;13279;51.300;12.394;2023-04-01T13:27:35;12.20;1.00
25328;DHT22;13279;51.300;12.394;2023-04-01T13:30:22;12.20;1.00
25328;DHT22;13279;51.300;12.394;2023-04-01T13:32:58;12.30;1.00
25328;DHT22;13279;51.300;12.394;2023-04-01T13:35:36;12.30;1.00
25328;DHT22;13279;51.300;12.394;2023-04-01T13:38:30;12.30;1.00
25328;DHT22;13279;51.300;12.394;2023-04-01T13:41:04;12.30;10.50
25328;DHT22;13279;51.300;12.394;2023-04-01T13:43:37;12.10;1.00
25328;DHT22;13279;51.300;12.394;2023-04-01T13:49:12;11.90;37.60
25328;DHT22;13279;51.300;12.394;2023-04-01T13:51:58;11.90;99.90
25328;DHT22;13279;51.300;12.394;2023-04-01T13:57:57;11.80;99.90
25328;DHT22;13279;51.300;12.394;2023-04-01T14:00:38;11.70;99.90
25328;DHT22;13279;51.300;12.394;2023-04-01T14:03:27;11.50;99.90
25328;DHT22;13279;51.300;12.394;2023-04-01T14:06:09;11.40;99.90
25328;DHT22;13279;51.300;12.394;2023-04-01T14:09:03;11.40;99.90
25328;DHT22;13279;51.300;12.394;2023-04-01T14:11:38;11.30;99.90
25328;DHT22;13279;51.300;12.394;2023-04-01T14:14:17;11.30;99.90
25328;DHT22;13279;51.300;12.394;2023-04-01T14:16:57;11.40;99.90
25328;DHT22;13279;51.300;12.394;2023-04-01T14:19:36;11.40;99.90
25328;DHT22;13279;51.300;12.394;2023-04-01T14:22:12;11.40;99.90
25328;DHT22;13279;51.300;12.394;2023-04-01T14:25:28;11.50;99.90
25328;DHT22;13279;51.300;12.394;2023-04-01T14:28:04;11.60;99.90
25328;DHT22;13279;51.300;12.394;2023-04-01T14:30:52;11.60;99.90
25328;DHT22;13279;51.300;12.394;2023-04-01T14:33:34;11.60;99.90
25328;DHT22;13279;51.300;12.394;2023-04-01T14:36:23;11.50;99.90
25328;DHT22;13279;51.300;12.394;2023-04-01T14:39:03;11.50;99.90
25328;DHT22;13279;51.300;12.394;2023-04-01T14:41:46;11.50;99.90
25328;DHT22;13279;51.300;12.394;2023-04-01T14:44:28;11.50;99.90
25328;DHT22;13279;51.300;12.394;2023-04-01T14:50:06;11.50;99.90
25328;DHT22;13279;51.300;12.394;2023-04-01T14:52:38;11.50;99.90
25328;DHT22;13279;51.300;12.394;2023-04-01T14:55:31;11.50;99.90
25328;DHT22;13279;51.300;12.394;2023-04-01T15:01:43;11.40;99.90
25328;DHT22;13279;51.300;12.394;2023-04-01T15:04:58;11.30;99.90
25328;DHT22;13279;51.300;12.394;2023-04-01T15:07:56;11.30;99.90
25328;DHT22;13279;51.300;12.394;2023-04-01T15:10:46;11.30;99.90
25328;DHT22;13279;51.300;12.394;2023-04-01T15:13:17;11.20;99.90
25328;DHT22;13279;51.300;12.394;2023-04-01T15:15:59;11.10;99.90
25328;DHT22;13279;51.300;12.394;2023-04-01T15:18:40;11.00;99.90
25328;DHT22;13279;51.300;12.394;2023-04-01T15:21:39;10.90;99.90
25328;DHT22;13279;51.300;12.394;2023-04-01T15:24:46;10.90;99.90
25328;DHT22;13279;51.300;12.394;2023-04-01T15:27:32;10.80;99.90
25328;DHT22;13279;51.300;12.394;2023-04-01T15:30:33;10.90;99.90
25328;DHT22;13279;51.300;12.394;2023-04-01T15:36:10;10.90;99.90
25328;DHT22;13279;51.300;12.394;2023-04-01T15:38:48;10.90;99.90
25328;DHT22;13279;51.300;12.394;2023-04-01T15:41:19;10.80;99.90
25328;DHT22;13279;51.300;12.394;2023-04-01T15:43:50;10.80;99.90
25328;DHT22;13279;51.300;12.394;2023-04-01T15:46:41;10.80;99.90
25328;DHT22;13279;51.300;12.394;2023-04-01T15:49:24;10.80;99.90
25328;DHT22;13279;51.300;12.394;2023-04-01T15:52:13;10.80;99.90
25328;DHT22;13279;51.300;12.394;2023-04-01T15:55:14;10.70;99.90
25328;DHT22;13279;51.300;12.394;2023-04-01T15:57:54;10.70;99.90
25328;DHT22;13279;51.300;12.394;2023-04-01T16:00:30;10.70;99.90
25328;DHT22;13279;51.300;12.394;2023-04-01T16:03:19;10.70;99.90
25328;DHT22;13279;51.300;12.394;2023-04-01T16:06:11;10.70;99.90
25328;DHT22;13279;51.300;12.394;2023-04-01T16:09:02;10.60;99.90
25328;DHT22;13279;51.300;12.394;2023-04-01T16:11:40;10.60;99.90
25328;DHT22;13279;51.300;12.394;2023-04-01T16:14:23;10.70;99.90
25328;DHT22;13279;51.300;12.394;2023-04-01T16:17:02;10.70;99.90
25328;DHT22;13279;51.300;12.394;2023-04-01T16:19:44;10.60;99.90
25328;DHT22;13279;51.300;12.394;2023-04-01T16:22:22;10.50;99.90
25328;DHT22;13279;51.300;12.394;2023-04-01T16:25:07;10.50;99.90
25328;DHT22;13279;51.300;12.394;2023-04-01T16:27:46;10.40;99.90
25328;DHT22;13279;51.300;12.394;2023-04-01T16:30:33;10.50;99.90
25328;DHT22;13279;51.300;12.394;2023-04-01T16:33:04;10.40;99.90
25328;DHT22;13279;51.300;12.394;2023-04-01T16:35:43;10.40;99.90
25328;DHT22;13279;51.300;12.394;2023-04-01T16:38:18;10.40;99.90
25328;DHT22;13279;51.300;12.394;2023-04-01T16:41:00;10.30;99.90
25328;DHT22;13279;51.300;12.394;2023-04-01T16:43:38;10.30;99.90
25328;DHT22;13279;51.300;12.394;2023-04-01T16:46:33;10.30;99.90
25328;DHT22;13279;51.300;12.394;2023-04-01T16:51:54;10.30;99.90
25328;DHT22;13279;51.300;12.394;2023-04-01T16:54:31;10.20;99.90
25328;DHT22;13279;51.300;12.394;2023-04-01T16:57:16;10.20;99.90
25328;DHT22;13279;51.300;12.394;2023-04-01T16:59:47;10.20;99.90
25328;DHT22;13279;51.300;12.394;2023-04-01T17:02:17;10.20;99.90
25328;DHT22;13279;51.300;12.394;2023-04-01T17:04:48;10.20;99.90
25328;DHT22;13279;51.300;12.394;2023-04-01T17:07:23;10.20;99.90
25328;DHT22;13279;51.300;12.394;2023-04-01T17:12:59;10.20;99.90
25328;DHT22;13279;51.300;12.394;2023-04-01T17:15:34;10.20;99.90
25328;DHT22;13279;51.300;12.394;2023-04-01T17:18:11;10.10;99.90
25328;DHT22;13279;51.300;12.394;2023-04-01T17:20:43;10.10;99.90
25328;DHT22;13279;51.300;12.394;2023-04-01T17:23:19;10.10;99.90
25328;DHT22;13279;51.300;12.394;2023-04-01T17:26:01;10.10;99.90
25328;DHT22;13279;51.300;12.394;2023-04-01T17:28:45;10.10;99.90
25328;DHT22;13279;51.300;12.394;2023-04-01T17:31:26;10.00;99.90
25328;DHT22;13279;51.300;12.394;2023-04-01T17:37:24;10.00;99.90
25328;DHT22;13279;51.300;12.394;2023-04-01T17:40:07;10.00;99.90
25328;DHT22;13279;51.300;12.394;2023-04-01T17:42:41;9.90;99.90
25328;DHT22;13279;51.300;12.394;2023-04-01T17:45:21;9.90;99.90
25328;DHT22;13279;51.300;12.394;2023-04-01T17:48:08;9.80;99.90
25328;DHT22;13279;51.300;12.394;2023-04-01T17:50:51;9.70;99.90
25328;DHT22;13279;51.300;12.394;2023-04-01T17:53:32;9.70;99.90
25328;DHT22;13279;51.300;12.394;2023-04-01T17:56:11;9.70;99.90
25328;DHT22;13279;51.300;12.394;2023-04-01T17:58:45;9.70;99.90
25328;DHT22;13279;51.300;12.394;2023-04-01T18:01:36;9.60;99.90
25328;DHT22;13279;51.300;12.394;2023-04-01T18:10:24;9.60;99.90
25328;DHT22;13279;51.300;12.394;2023-04-01T18:13:14;9.60;99.90
25328;DHT22;13279;51.300;12.394;2023-04-01T18:15:48;9.60;99.90
25328;DHT22;13279;51.300;12.394;2023-04-01T18:18:36;9.60;99.90
25328;DHT22;13279;51.300;12.394;2023-04-01T18:21:13;9.60;99.90
25328;DHT22;13279;51.300;12.394;2023-04-01T18:23:47;9.60;99.90
25328;DHT22;13279;51.300;12.394;2023-04-01T18:26:21;9.60;99.90